x

Shumagin Islands - 85nm South Of Sand Point, Ak (46075) Wave Buoy

7:50 - Sat 24th Sep 2016 All times are UTC.

  • Sig Wave height 4.6ft
  • Swell Direction
  • Peak Period 9s
  • Average Period 6s
  • Wind
    7mph, 9mph gusts
  • Sea Temp 53°f
  • Ar Temp 51°f
  • Sea Pressure 1012mb

More Historic Weather Station data

Upgrade to MSW Pro to gain access to the past 30 days of data for over 8000 Wavebouys and Weather Stations around the globe.

Join Pro

Comparision Forecast

View Surf forecast
   
Sáb 09/24 7:50 4.5ft 9s 6s 7 9 mph 1012mb 53f 51f
6:50 4.5ft 8s 6s 9
mph
1011.5mb 53f 51f
5:50 4.5ft 9s 6s 9 13 mph 1010.7mb 53f 51f
4:50 5ft 8s 6s 11 13 mph 1010mb 53f 51f
3:50 4.5ft 8s 6s 11 13 mph 1009.3mb 53f 51f
2:50 4.5ft 8s 6s 11 13 mph 1008.7mb 53f 51f
1:50 5.5ft 9s 7s 13 16 mph 1008.2mb 53f 51f
12:50 6ft 9s 7s 11 13 mph 1007.7mb 53f 52f
11:50 5.5ft 8s 7s 7 9 mph 1007.3mb 53f 52f
10:50 5.5ft 9s 6s 7 9 mph 1006.9mb 53f 51f
9:50 6ft 9s 7s 11 13 mph 1006.4mb 53f 52f
7:50 6ft 9s 7s 16 18 mph 1005.3mb 53f 52f
6:50 6ft 9s 7s 16 18 mph 1004.7mb 54f 52f
5:50 5.5ft 9s 6s 16 18 mph 1004.1mb 54f 52f
4:50 5.5ft 8s 6s 16 18 mph 1003.3mb 54f 51f
3:50 5ft 8s 6s 16 18 mph 1002.7mb 54f 51f
2:50 6ft 8s 6s 16 18 mph 1002.3mb 54f 51f
1:50 6ft 8s 6s 16 18 mph 1001.9mb 54f 52f
12:50 6ft 8s 6s 13 16 mph 1001.6mb 54f 52f
Sex 09/23 11:50 6ft 9s 6s 13 16 mph 1001.4mb 54f 51f
10:50 5.5ft 8s 6s 13 16 mph 1001.3mb 53f 52f
9:50 6.5ft 8s 7s 11 13 mph 1001.1mb 53f 51f
8:50 6ft 9s 6s 11 16 mph 1000.6mb 53f 52f
7:50 6.5ft 8s 7s 11 16 mph 1000.1mb 54f 51f
5:50 6ft 9s 6s 11 16 mph 999.2mb 53f 52f
4:50 6ft 8s 7s 13 18 mph 998.7mb 53f 52f
3:50 6.5ft 8s 6s 11 13 mph 998.4mb 53f 51f
2:50 6.5ft 8s 6s 13 16 mph 998.1mb 53f 52f
12:50 8ft 9s 7s 16 20 mph 997.9mb 53f 51f
11:50 8ft 8s 6s 18 20 mph 997.7mb 53f 51f
10:50 8.5ft 9s 7s 18 22 mph 997.6mb 53f 51f
9:50 9ft 9s 7s 20 22 mph 997.3mb 53f 52f
8:50 8.5ft 9s 7s 20 22 mph 996.9mb 54f 52f
7:50 9ft 9s 7s 18 22 mph 996.8mb 54f 51f
6:50 9ft 9s 7s 18 22 mph 996.3mb 54f 51f
5:50 9ft 9s 7s 20 25 mph 995.7mb 54f 51f
4:50 10ft 9s 7s 18 25 mph 995.2mb 54f 51f
3:50 9.5ft 9s 7s 20 25 mph 994.7mb 54f 51f
2:50 9ft 9s 7s 20 22 mph 994.5mb 54f 52f
1:50 9ft 10s 7s 20 25 mph 994.3mb 54f 52f
12:50 9ft 9s 7s 20 25 mph 994.2mb 53f 52f
Qui 09/22 11:50 9ft 9s 7s 22 27 mph 994.3mb 53f 52f
10:50 8.5ft 8s 7s 20 22 mph 994.4mb 53f 51f
9:50 9ft 9s 7s 20 25 mph 994.2mb 53f 52f
8:50 10.5ft 9s 7s 22 29 mph 994mb 53f 51f
7:50 10.5ft 8s 7s 20 29 mph 993.7mb 53f 50f
6:50 10ft 9s 7s 22 27 mph 993.1mb 53f 52f
5:50 9ft 8s 7s 25 27 mph 992.7mb 53f 52f
4:50 10ft 8s 7s 22 29 mph 992.4mb 53f 51f
3:50 10ft 9s 7s 22 27 mph 992.2mb 53f 52f
2:50 9.5ft 10s 7s 20 25 mph 992.1mb 53f 51f
1:50 9ft 10s  -  25 31 mph 992.1mb 53f 50f
12:50 8.5ft 9s 7s 22 27 mph 992.3mb 53f 52f
11:50 8.5ft 10s 7s 25 31 mph 992.5mb 53f 52f
10:50 8ft 9s 7s 18 22 mph 992.9mb 53f 52f
9:50 9ft 10s 7s 20 25 mph 993.1mb 53f 52f
8:50 9ft 10s 7s 20 25 mph 993.2mb 53f 52f
7:50 9ft 10s 7s 22 27 mph 993.2mb 53f 52f
6:50 8.5ft 11s 7s 22 27 mph 993mb 53f 52f
5:50 8ft 10s 7s 18 22 mph 992.8mb 54f 52f
4:50 7.5ft 10s 7s 18 22 mph 992.6mb 54f 52f
3:50 7.5ft 9s 7s 16 20 mph 992.5mb 54f 52f
2:50 8ft 9s 7s 16 20 mph 992.5mb 54f 52f
1:50 7.5ft 11s 7s 13 18 mph 992.8mb 53f 52f
12:50 8ft 10s 7s 13 18 mph 993.2mb 54f 52f
Qua 09/21 11:50 8ft 11s 7s 16 20 mph 993.6mb 54f 52f
10:50 8ft 10s 7s 16 20 mph 993.9mb 55f 52f